sensor_id;sensor_type;location;lat;lon;timestamp;temperature;humidity
578;DHT22;275;48.492;9.214;2023-08-06T00:01:30;19.20;49.70
578;DHT22;275;48.492;9.214;2023-08-06T00:03:57;19.20;49.60
578;DHT22;275;48.492;9.214;2023-08-06T00:06:25;19.10;50.10
578;DHT22;275;48.492;9.214;2023-08-06T00:08:53;19.10;50.20
578;DHT22;275;48.492;9.214;2023-08-06T00:11:20;19.20;49.80
578;DHT22;275;48.492;9.214;2023-08-06T00:13:47;19.10;49.70
578;DHT22;275;48.492;9.214;2023-08-06T00:16:14;19.10;49.30
578;DHT22;275;48.492;9.214;2023-08-06T00:18:41;19.00;49.30
578;DHT22;275;48.492;9.214;2023-08-06T00:21:08;19.20;48.70
578;DHT22;275;48.492;9.214;2023-08-06T00:23:34;18.90;49.80
578;DHT22;275;48.492;9.214;2023-08-06T00:26:03;18.40;51.00
578;DHT22;275;48.492;9.214;2023-08-06T00:28:29;18.40;50.90
578;DHT22;275;48.492;9.214;2023-08-06T00:30:56;18.00;52.10
578;DHT22;275;48.492;9.214;2023-08-06T00:33:24;17.90;52.90
578;DHT22;275;48.492;9.214;2023-08-06T00:35:51;17.90;52.60
578;DHT22;275;48.492;9.214;2023-08-06T00:38:18;18.10;51.90
578;DHT22;275;48.492;9.214;2023-08-06T00:40:44;18.20;50.90
578;DHT22;275;48.492;9.214;2023-08-06T00:43:12;18.10;50.70
578;DHT22;275;48.492;9.214;2023-08-06T00:45:39;18.20;49.70
578;DHT22;275;48.492;9.214;2023-08-06T00:48:06;18.30;49.00
578;DHT22;275;48.492;9.214;2023-08-06T00:50:33;18.00;49.50
578;DHT22;275;48.492;9.214;2023-08-06T00:53:01;18.40;48.00
578;DHT22;275;48.492;9.214;2023-08-06T00:55:29;18.60;47.00
578;DHT22;275;48.492;9.214;2023-08-06T00:57:56;18.60;47.10
578;DHT22;275;48.492;9.214;2023-08-06T01:00:24;18.50;46.00
578;DHT22;275;48.492;9.214;2023-08-06T01:02:53;18.20;46.20
578;DHT22;275;48.492;9.214;2023-08-06T01:05:21;18.00;46.40
578;DHT22;275;48.492;9.214;2023-08-06T01:08:07;18.00;46.20
578;DHT22;275;48.492;9.214;2023-08-06T01:10:50;17.40;46.60
578;DHT22;275;48.492;9.214;2023-08-06T01:13:24;17.40;46.40
578;DHT22;275;48.492;9.214;2023-08-06T01:15:58;17.20;46.60
578;DHT22;275;48.492;9.214;2023-08-06T01:18:25;17.30;46.40
578;DHT22;275;48.492;9.214;2023-08-06T01:20:53;17.10;45.70
578;DHT22;275;48.492;9.214;2023-08-06T01:23:20;17.00;46.60
578;DHT22;275;48.492;9.214;2023-08-06T01:25:56;17.10;46.20
578;DHT22;275;48.492;9.214;2023-08-06T01:28:33;17.10;46.30
578;DHT22;275;48.492;9.214;2023-08-06T01:31:07;17.30;45.30
578;DHT22;275;48.492;9.214;2023-08-06T01:33:38;17.30;45.50
578;DHT22;275;48.492;9.214;2023-08-06T01:36:11;17.40;44.60
578;DHT22;275;48.492;9.214;2023-08-06T01:38:39;17.80;43.90
578;DHT22;275;48.492;9.214;2023-08-06T01:41:05;17.90;43.30
578;DHT22;275;48.492;9.214;2023-08-06T01:43:32;17.80;43.10
578;DHT22;275;48.492;9.214;2023-08-06T01:45:59;17.70;43.60
578;DHT22;275;48.492;9.214;2023-08-06T01:48:26;17.50;43.60
578;DHT22;275;48.492;9.214;2023-08-06T01:50:52;17.50;43.90
578;DHT22;275;48.492;9.214;2023-08-06T01:53:21;17.60;44.00
578;DHT22;275;48.492;9.214;2023-08-06T01:55:48;17.80;43.20
578;DHT22;275;48.492;9.214;2023-08-06T01:58:15;18.20;42.40
578;DHT22;275;48.492;9.214;2023-08-06T02:00:41;18.30;41.90
578;DHT22;275;48.492;9.214;2023-08-06T02:03:08;18.40;41.50
578;DHT22;275;48.492;9.214;2023-08-06T02:05:35;18.50;40.70
578;DHT22;275;48.492;9.214;2023-08-06T02:08:02;18.50;41.20
578;DHT22;275;48.492;9.214;2023-08-06T02:10:30;18.50;41.10
578;DHT22;275;48.492;9.214;2023-08-06T02:12:57;18.40;41.10
578;DHT22;275;48.492;9.214;2023-08-06T02:15:23;18.40;41.60
578;DHT22;275;48.492;9.214;2023-08-06T02:17:50;18.50;41.20
578;DHT22;275;48.492;9.214;2023-08-06T02:20:17;18.50;41.20
578;DHT22;275;48.492;9.214;2023-08-06T02:22:44;18.20;42.40
578;DHT22;275;48.492;9.214;2023-08-06T02:25:11;18.00;43.00
578;DHT22;275;48.492;9.214;2023-08-06T02:27:39;18.00;43.00
578;DHT22;275;48.492;9.214;2023-08-06T02:30:06;17.80;43.90
578;DHT22;275;48.492;9.214;2023-08-06T02:32:33;17.40;45.70
578;DHT22;275;48.492;9.214;2023-08-06T02:35:01;17.40;45.40
578;DHT22;275;48.492;9.214;2023-08-06T02:37:28;17.30;46.20
578;DHT22;275;48.492;9.214;2023-08-06T02:39:55;17.30;45.80
578;DHT22;275;48.492;9.214;2023-08-06T02:42:22;17.60;44.70
578;DHT22;275;48.492;9.214;2023-08-06T02:44:50;17.50;45.10
578;DHT22;275;48.492;9.214;2023-08-06T02:47:17;17.60;44.80
578;DHT22;275;48.492;9.214;2023-08-06T02:49:44;17.40;45.10
578;DHT22;275;48.492;9.214;2023-08-06T02:52:11;17.00;46.40
578;DHT22;275;48.492;9.214;2023-08-06T02:54:38;17.20;46.00
578;DHT22;275;48.492;9.214;2023-08-06T02:57:05;17.40;45.10
578;DHT22;275;48.492;9.214;2023-08-06T02:59:33;17.90;43.30
578;DHT22;275;48.492;9.214;2023-08-06T03:02:01;17.90;44.00
578;DHT22;275;48.492;9.214;2023-08-06T03:04:28;17.60;44.50
578;DHT22;275;48.492;9.214;2023-08-06T03:06:55;17.60;45.10
578;DHT22;275;48.492;9.214;2023-08-06T03:09:22;17.60;44.90
578;DHT22;275;48.492;9.214;2023-08-06T03:11:49;17.70;44.40
578;DHT22;275;48.492;9.214;2023-08-06T03:14:16;17.70;44.60
578;DHT22;275;48.492;9.214;2023-08-06T03:16:43;18.00;43.80
578;DHT22;275;48.492;9.214;2023-08-06T03:19:11;18.20;42.40
578;DHT22;275;48.492;9.214;2023-08-06T03:21:37;17.90;42.90
578;DHT22;275;48.492;9.214;2023-08-06T03:24:04;17.90;43.60
578;DHT22;275;48.492;9.214;2023-08-06T03:26:31;17.70;43.80
578;DHT22;275;48.492;9.214;2023-08-06T03:28:58;17.90;43.50
578;DHT22;275;48.492;9.214;2023-08-06T03:31:25;18.40;41.90
578;DHT22;275;48.492;9.214;2023-08-06T03:33:51;18.50;41.90
578;DHT22;275;48.492;9.214;2023-08-06T03:36:20;18.20;42.80
578;DHT22;275;48.492;9.214;2023-08-06T03:38:47;17.90;43.00
578;DHT22;275;48.492;9.214;2023-08-06T03:41:14;17.90;43.40
578;DHT22;275;48.492;9.214;2023-08-06T03:43:40;17.80;43.30
578;DHT22;275;48.492;9.214;2023-08-06T03:46:07;17.20;44.80
578;DHT22;275;48.492;9.214;2023-08-06T03:48:34;17.10;45.70
578;DHT22;275;48.492;9.214;2023-08-06T03:51:01;16.70;47.40
578;DHT22;275;48.492;9.214;2023-08-06T03:53:29;16.50;48.60
578;DHT22;275;48.492;9.214;2023-08-06T03:55:56;16.90;47.10
578;DHT22;275;48.492;9.214;2023-08-06T03:58:25;16.60;48.30
578;DHT22;275;48.492;9.214;2023-08-06T04:00:58;17.20;46.90
578;DHT22;275;48.492;9.214;2023-08-06T04:03:25;17.20;47.90
578;DHT22;275;48.492;9.214;2023-08-06T04:05:52;16.80;49.30
578;DHT22;275;48.492;9.214;2023-08-06T04:08:19;16.30;51.50
578;DHT22;275;48.492;9.214;2023-08-06T04:10:49;16.00;54.00
578;DHT22;275;48.492;9.214;2023-08-06T04:13:16;16.20;54.40
578;DHT22;275;48.492;9.214;2023-08-06T04:15:43;16.20;53.90
578;DHT22;275;48.492;9.214;2023-08-06T04:18:09;15.90;55.70
578;DHT22;275;48.492;9.214;2023-08-06T04:20:42;16.00;56.60
578;DHT22;275;48.492;9.214;2023-08-06T04:23:09;16.30;55.60
578;DHT22;275;48.492;9.214;2023-08-06T04:25:36;16.30;55.50
578;DHT22;275;48.492;9.214;2023-08-06T04:28:04;16.40;55.50
578;DHT22;275;48.492;9.214;2023-08-06T04:30:31;16.50;55.90
578;DHT22;275;48.492;9.214;2023-08-06T04:32:58;17.00;53.80
578;DHT22;275;48.492;9.214;2023-08-06T04:35:24;16.80;54.70
578;DHT22;275;48.492;9.214;2023-08-06T04:37:51;16.80;54.10
578;DHT22;275;48.492;9.214;2023-08-06T04:40:18;16.80;54.00
578;DHT22;275;48.492;9.214;2023-08-06T04:42:45;16.70;54.70
578;DHT22;275;48.492;9.214;2023-08-06T04:45:13;16.40;54.70
578;DHT22;275;48.492;9.214;2023-08-06T04:47:40;16.10;56.70
578;DHT22;275;48.492;9.214;2023-08-06T04:50:07;16.00;55.80
578;DHT22;275;48.492;9.214;2023-08-06T04:52:34;15.80;56.80
578;DHT22;275;48.492;9.214;2023-08-06T04:55:02;15.90;55.70
578;DHT22;275;48.492;9.214;2023-08-06T04:57:31;15.80;55.30
578;DHT22;275;48.492;9.214;2023-08-06T04:59:58;15.40;56.00
578;DHT22;275;48.492;9.214;2023-08-06T05:02:26;15.40;56.60
578;DHT22;275;48.492;9.214;2023-08-06T05:04:52;15.90;53.80
578;DHT22;275;48.492;9.214;2023-08-06T05:07:19;15.90;53.80
578;DHT22;275;48.492;9.214;2023-08-06T05:09:46;16.00;53.20
578;DHT22;275;48.492;9.214;2023-08-06T05:12:13;16.00;53.10
578;DHT22;275;48.492;9.214;2023-08-06T05:14:40;16.00;53.60
578;DHT22;275;48.492;9.214;2023-08-06T05:17:07;16.40;52.40
578;DHT22;275;48.492;9.214;2023-08-06T05:19:35;16.60;52.00
578;DHT22;275;48.492;9.214;2023-08-06T05:22:02;17.30;50.30
578;DHT22;275;48.492;9.214;2023-08-06T05:24:28;17.50;49.10
578;DHT22;275;48.492;9.214;2023-08-06T05:26:55;17.50;49.40
578;DHT22;275;48.492;9.214;2023-08-06T05:29:22;17.60;48.90
578;DHT22;275;48.492;9.214;2023-08-06T05:31:49;17.30;49.40
578;DHT22;275;48.492;9.214;2023-08-06T05:34:16;17.70;48.70
578;DHT22;275;48.492;9.214;2023-08-06T05:36:44;17.60;46.80
578;DHT22;275;48.492;9.214;2023-08-06T05:39:11;17.20;49.40
578;DHT22;275;48.492;9.214;2023-08-06T05:41:37;17.50;47.70
578;DHT22;275;48.492;9.214;2023-08-06T05:44:04;17.80;46.20
578;DHT22;275;48.492;9.214;2023-08-06T05:46:31;17.20;47.20
578;DHT22;275;48.492;9.214;2023-08-06T05:48:58;17.10;47.80
578;DHT22;275;48.492;9.214;2023-08-06T05:51:26;16.90;48.30
578;DHT22;275;48.492;9.214;2023-08-06T05:53:54;17.20;47.40
578;DHT22;275;48.492;9.214;2023-08-06T05:56:21;17.00;46.60
578;DHT22;275;48.492;9.214;2023-08-06T05:58:48;16.60;48.80
578;DHT22;275;48.492;9.214;2023-08-06T06:01:16;16.40;47.40
578;DHT22;275;48.492;9.214;2023-08-06T06:03:43;16.20;48.80
578;DHT22;275;48.492;9.214;2023-08-06T06:06:10;16.40;48.20
578;DHT22;275;48.492;9.214;2023-08-06T06:08:37;16.60;47.20
578;DHT22;275;48.492;9.214;2023-08-06T06:11:05;16.40;48.30
578;DHT22;275;48.492;9.214;2023-08-06T06:13:32;16.00;51.60
578;DHT22;275;48.492;9.214;2023-08-06T06:15:59;15.70;53.00
578;DHT22;275;48.492;9.214;2023-08-06T06:18:25;15.90;52.90
578;DHT22;275;48.492;9.214;2023-08-06T06:20:52;15.90;53.50
578;DHT22;275;48.492;9.214;2023-08-06T06:23:19;16.50;51.50
578;DHT22;275;48.492;9.214;2023-08-06T06:25:48;16.80;49.80
578;DHT22;275;48.492;9.214;2023-08-06T06:28:18;17.30;47.20
578;DHT22;275;48.492;9.214;2023-08-06T06:30:45;18.10;46.60
578;DHT22;275;48.492;9.214;2023-08-06T06:33:12;18.40;44.50
578;DHT22;275;48.492;9.214;2023-08-06T06:35:39;18.10;45.70
578;DHT22;275;48.492;9.214;2023-08-06T06:38:05;17.80;46.50
578;DHT22;275;48.492;9.214;2023-08-06T06:40:32;17.30;48.90
578;DHT22;275;48.492;9.214;2023-08-06T06:42:59;17.70;47.10
578;DHT22;275;48.492;9.214;2023-08-06T06:45:27;17.30;46.90
578;DHT22;275;48.492;9.214;2023-08-06T06:47:54;17.00;49.20
578;DHT22;275;48.492;9.214;2023-08-06T06:50:21;16.70;49.10
578;DHT22;275;48.492;9.214;2023-08-06T06:52:48;16.60;49.10
578;DHT22;275;48.492;9.214;2023-08-06T06:55:15;16.50;48.90
578;DHT22;275;48.492;9.214;2023-08-06T06:57:42;16.90;47.90
578;DHT22;275;48.492;9.214;2023-08-06T07:00:10;17.30;48.00
578;DHT22;275;48.492;9.214;2023-08-06T07:02:38;16.50;49.50
578;DHT22;275;48.492;9.214;2023-08-06T07:05:06;16.30;51.10
578;DHT22;275;48.492;9.214;2023-08-06T07:07:33;16.70;50.50
578;DHT22;275;48.492;9.214;2023-08-06T07:10:01;16.30;51.30
578;DHT22;275;48.492;9.214;2023-08-06T07:12:28;16.70;50.80
578;DHT22;275;48.492;9.214;2023-08-06T07:14:54;17.10;49.40
578;DHT22;275;48.492;9.214;2023-08-06T07:17:21;17.40;48.90
578;DHT22;275;48.492;9.214;2023-08-06T07:19:50;17.30;48.40
578;DHT22;275;48.492;9.214;2023-08-06T07:22:17;17.40;48.60
578;DHT22;275;48.492;9.214;2023-08-06T07:24:44;17.40;48.50
578;DHT22;275;48.492;9.214;2023-08-06T07:27:11;16.50;51.20
578;DHT22;275;48.492;9.214;2023-08-06T07:29:37;16.20;54.20
578;DHT22;275;48.492;9.214;2023-08-06T07:32:06;16.20;54.00
578;DHT22;275;48.492;9.214;2023-08-06T07:34:33;15.50;55.80
578;DHT22;275;48.492;9.214;2023-08-06T07:37:01;15.70;55.60
578;DHT22;275;48.492;9.214;2023-08-06T07:39:28;16.50;53.60
578;DHT22;275;48.492;9.214;2023-08-06T07:41:55;16.90;51.70
578;DHT22;275;48.492;9.214;2023-08-06T07:44:22;16.00;53.50
578;DHT22;275;48.492;9.214;2023-08-06T07:46:49;16.40;52.90
578;DHT22;275;48.492;9.214;2023-08-06T07:49:16;16.80;50.80
578;DHT22;275;48.492;9.214;2023-08-06T07:51:43;16.30;51.70
578;DHT22;275;48.492;9.214;2023-08-06T07:54:11;16.90;51.00
578;DHT22;275;48.492;9.214;2023-08-06T07:56:38;17.20;48.00
578;DHT22;275;48.492;9.214;2023-08-06T07:59:05;16.90;49.10
578;DHT22;275;48.492;9.214;2023-08-06T08:01:32;16.90;50.50
578;DHT22;275;48.492;9.214;2023-08-06T08:03:59;17.60;48.00
578;DHT22;275;48.492;9.214;2023-08-06T08:06:26;17.80;48.20
578;DHT22;275;48.492;9.214;2023-08-06T08:08:52;17.80;46.80
578;DHT22;275;48.492;9.214;2023-08-06T08:11:21;17.30;49.20
578;DHT22;275;48.492;9.214;2023-08-06T08:13:48;16.60;49.70
578;DHT22;275;48.492;9.214;2023-08-06T08:16:15;16.50;51.30
578;DHT22;275;48.492;9.214;2023-08-06T08:18:42;16.30;51.40
578;DHT22;275;48.492;9.214;2023-08-06T08:21:09;16.80;50.40
578;DHT22;275;48.492;9.214;2023-08-06T08:23:36;16.40;52.00
578;DHT22;275;48.492;9.214;2023-08-06T08:26:04;16.30;52.60
578;DHT22;275;48.492;9.214;2023-08-06T08:28:32;16.20;53.40
578;DHT22;275;48.492;9.214;2023-08-06T08:30:59;16.60;52.70
578;DHT22;275;48.492;9.214;2023-08-06T08:33:26;16.40;50.90
578;DHT22;275;48.492;9.214;2023-08-06T08:35:52;16.00;55.20
578;DHT22;275;48.492;9.214;2023-08-06T08:38:19;16.10;55.70
578;DHT22;275;48.492;9.214;2023-08-06T08:40:48;16.80;53.10
578;DHT22;275;48.492;9.214;2023-08-06T08:43:21;17.70;49.80
578;DHT22;275;48.492;9.214;2023-08-06T08:45:50;17.90;49.00
578;DHT22;275;48.492;9.214;2023-08-06T08:48:18;17.80;49.30
578;DHT22;275;48.492;9.214;2023-08-06T08:50:47;17.40;49.40
578;DHT22;275;48.492;9.214;2023-08-06T08:53:16;17.90;48.50
578;DHT22;275;48.492;9.214;2023-08-06T08:55:46;17.80;48.30
578;DHT22;275;48.492;9.214;2023-08-06T08:58:13;18.10;47.80
578;DHT22;275;48.492;9.214;2023-08-06T09:00:42;17.00;49.70
578;DHT22;275;48.492;9.214;2023-08-06T09:03:10;17.00;50.50
578;DHT22;275;48.492;9.214;2023-08-06T09:05:42;17.00;51.40
578;DHT22;275;48.492;9.214;2023-08-06T09:08:11;16.60;50.70
578;DHT22;275;48.492;9.214;2023-08-06T09:10:42;16.30;52.30
578;DHT22;275;48.492;9.214;2023-08-06T09:13:09;16.50;52.20
578;DHT22;275;48.492;9.214;2023-08-06T09:15:38;17.00;50.60
578;DHT22;275;48.492;9.214;2023-08-06T09:18:11;17.60;49.10
578;DHT22;275;48.492;9.214;2023-08-06T09:20:38;16.90;51.10
578;DHT22;275;48.492;9.214;2023-08-06T09:23:07;17.20;51.10
578;DHT22;275;48.492;9.214;2023-08-06T09:25:38;18.50;47.30
578;DHT22;275;48.492;9.214;2023-08-06T09:28:06;19.20;43.70
578;DHT22;275;48.492;9.214;2023-08-06T09:30:35;20.60;41.50
578;DHT22;275;48.492;9.214;2023-08-06T09:33:02;22.00;37.90
578;DHT22;275;48.492;9.214;2023-08-06T09:35:31;21.10;38.40
578;DHT22;275;48.492;9.214;2023-08-06T09:38:05;19.80;41.50
578;DHT22;275;48.492;9.214;2023-08-06T09:40:33;19.00;43.80
578;DHT22;275;48.492;9.214;2023-08-06T09:43:00;19.20;44.50
578;DHT22;275;48.492;9.214;2023-08-06T09:45:30;19.80;42.90
578;DHT22;275;48.492;9.214;2023-08-06T09:47:57;19.50;42.60
578;DHT22;275;48.492;9.214;2023-08-06T09:50:29;18.90;43.10
578;DHT22;275;48.492;9.214;2023-08-06T09:52:58;18.20;47.50
578;DHT22;275;48.492;9.214;2023-08-06T09:55:25;17.40;51.10
578;DHT22;275;48.492;9.214;2023-08-06T09:57:53;17.40;52.00
578;DHT22;275;48.492;9.214;2023-08-06T10:00:20;16.90;52.50
578;DHT22;275;48.492;9.214;2023-08-06T10:02:47;16.70;53.40
578;DHT22;275;48.492;9.214;2023-08-06T10:05:15;17.00;52.10
578;DHT22;275;48.492;9.214;2023-08-06T10:07:43;17.60;51.70
578;DHT22;275;48.492;9.214;2023-08-06T10:10:11;17.20;52.80
578;DHT22;275;48.492;9.214;2023-08-06T10:12:41;17.60;52.40
578;DHT22;275;48.492;9.214;2023-08-06T10:15:12;17.20;53.30
578;DHT22;275;48.492;9.214;2023-08-06T10:17:41;16.60;56.20
578;DHT22;275;48.492;9.214;2023-08-06T10:20:09;16.00;57.80
578;DHT22;275;48.492;9.214;2023-08-06T10:22:36;16.40;55.80
578;DHT22;275;48.492;9.214;2023-08-06T10:25:03;15.80;57.90
578;DHT22;275;48.492;9.214;2023-08-06T10:27:34;16.00;58.60
578;DHT22;275;48.492;9.214;2023-08-06T10:30:23;15.90;56.40
578;DHT22;275;48.492;9.214;2023-08-06T10:32:51;16.10;56.90
578;DHT22;275;48.492;9.214;2023-08-06T10:35:34;16.10;58.20
578;DHT22;275;48.492;9.214;2023-08-06T10:38:05;16.60;55.80
578;DHT22;275;48.492;9.214;2023-08-06T10:40:33;16.80;55.30
578;DHT22;275;48.492;9.214;2023-08-06T10:43:02;16.60;54.50
578;DHT22;275;48.492;9.214;2023-08-06T10:45:30;17.10;52.30
578;DHT22;275;48.492;9.214;2023-08-06T10:48:00;16.50;53.30
578;DHT22;275;48.492;9.214;2023-08-06T10:50:27;16.00;57.10
578;DHT22;275;48.492;9.214;2023-08-06T10:52:54;16.40;56.50
578;DHT22;275;48.492;9.214;2023-08-06T10:55:25;17.20;54.90
578;DHT22;275;48.492;9.214;2023-08-06T10:57:53;17.70;52.40
578;DHT22;275;48.492;9.214;2023-08-06T11:00:22;17.20;53.50
578;DHT22;275;48.492;9.214;2023-08-06T11:02:50;16.50;54.80
578;DHT22;275;48.492;9.214;2023-08-06T11:05:17;16.80;55.50
578;DHT22;275;48.492;9.214;2023-08-06T11:07:44;16.80;55.00
578;DHT22;275;48.492;9.214;2023-08-06T11:10:13;16.90;55.50
578;DHT22;275;48.492;9.214;2023-08-06T11:12:40;16.70;54.60
578;DHT22;275;48.492;9.214;2023-08-06T11:15:08;17.00;56.40
578;DHT22;275;48.492;9.214;2023-08-06T11:17:40;16.50;55.50
578;DHT22;275;48.492;9.214;2023-08-06T11:20:08;16.40;56.60
578;DHT22;275;48.492;9.214;2023-08-06T11:22:36;16.20;58.20
578;DHT22;275;48.492;9.214;2023-08-06T11:25:05;16.10;59.00
578;DHT22;275;48.492;9.214;2023-08-06T11:27:32;16.10;57.10
578;DHT22;275;48.492;9.214;2023-08-06T11:29:59;16.00;58.10
578;DHT22;275;48.492;9.214;2023-08-06T11:32:25;15.80;60.80
578;DHT22;275;48.492;9.214;2023-08-06T11:34:55;16.00;60.00
578;DHT22;275;48.492;9.214;2023-08-06T11:37:22;16.30;59.50
578;DHT22;275;48.492;9.214;2023-08-06T11:39:51;16.60;58.10
578;DHT22;275;48.492;9.214;2023-08-06T11:42:18;17.00;56.60
578;DHT22;275;48.492;9.214;2023-08-06T11:44:45;17.20;55.60
578;DHT22;275;48.492;9.214;2023-08-06T11:47:14;17.70;54.20
578;DHT22;275;48.492;9.214;2023-08-06T11:49:43;18.00;52.80
578;DHT22;275;48.492;9.214;2023-08-06T11:52:14;17.80;54.60
578;DHT22;275;48.492;9.214;2023-08-06T11:54:42;18.00;53.80
578;DHT22;275;48.492;9.214;2023-08-06T11:57:09;18.40;53.70
578;DHT22;275;48.492;9.214;2023-08-06T11:59:37;18.00;53.80
578;DHT22;275;48.492;9.214;2023-08-06T12:02:05;17.70;54.50
578;DHT22;275;48.492;9.214;2023-08-06T12:05:01;17.60;54.80
578;DHT22;275;48.492;9.214;2023-08-06T12:07:31;17.70;54.30
578;DHT22;275;48.492;9.214;2023-08-06T12:09:59;17.80;54.40
578;DHT22;275;48.492;9.214;2023-08-06T12:12:26;18.10;51.80
578;DHT22;275;48.492;9.214;2023-08-06T12:14:54;18.00;52.00
578;DHT22;275;48.492;9.214;2023-08-06T12:17:21;18.10;51.10
578;DHT22;275;48.492;9.214;2023-08-06T12:19:48;17.90;50.80
578;DHT22;275;48.492;9.214;2023-08-06T12:22:16;18.10;49.50
578;DHT22;275;48.492;9.214;2023-08-06T12:24:46;17.10;51.20
578;DHT22;275;48.492;9.214;2023-08-06T12:27:13;16.70;52.70
578;DHT22;275;48.492;9.214;2023-08-06T12:29:45;16.70;53.50
578;DHT22;275;48.492;9.214;2023-08-06T12:32:12;16.40;52.80
578;DHT22;275;48.492;9.214;2023-08-06T12:34:40;16.80;51.50
578;DHT22;275;48.492;9.214;2023-08-06T12:37:07;17.50;49.10
578;DHT22;275;48.492;9.214;2023-08-06T12:39:34;18.40;46.40
578;DHT22;275;48.492;9.214;2023-08-06T12:42:04;18.20;45.60
578;DHT22;275;48.492;9.214;2023-08-06T12:44:31;18.10;45.00
578;DHT22;275;48.492;9.214;2023-08-06T12:46:58;18.50;44.50
578;DHT22;275;48.492;9.214;2023-08-06T12:49:25;18.20;44.80
578;DHT22;275;48.492;9.214;2023-08-06T12:51:52;17.90;45.70
578;DHT22;275;48.492;9.214;2023-08-06T12:54:20;17.50;44.80
578;DHT22;275;48.492;9.214;2023-08-06T12:56:47;17.40;46.50
578;DHT22;275;48.492;9.214;2023-08-06T12:59:17;17.80;44.80
578;DHT22;275;48.492;9.214;2023-08-06T13:01:45;17.80;44.80
578;DHT22;275;48.492;9.214;2023-08-06T13:04:12;17.80;45.20
578;DHT22;275;48.492;9.214;2023-08-06T13:06:39;17.50;45.30
578;DHT22;275;48.492;9.214;2023-08-06T13:09:06;17.20;44.50
578;DHT22;275;48.492;9.214;2023-08-06T13:11:34;17.50;45.00
578;DHT22;275;48.492;9.214;2023-08-06T13:14:05;17.90;43.70
578;DHT22;275;48.492;9.214;2023-08-06T13:16:34;17.30;44.50
578;DHT22;275;48.492;9.214;2023-08-06T13:19:01;17.30;44.40
578;DHT22;275;48.492;9.214;2023-08-06T13:21:32;17.90;43.50
578;DHT22;275;48.492;9.214;2023-08-06T13:23:59;18.60;41.60
578;DHT22;275;48.492;9.214;2023-08-06T13:26:27;19.10;39.50
578;DHT22;275;48.492;9.214;2023-08-06T13:28:53;18.60;40.80
578;DHT22;275;48.492;9.214;2023-08-06T13:31:21;18.70;40.00
578;DHT22;275;48.492;9.214;2023-08-06T13:33:49;17.70;43.80
578;DHT22;275;48.492;9.214;2023-08-06T13:36:16;17.80;44.40
578;DHT22;275;48.492;9.214;2023-08-06T13:38:43;17.60;44.70
578;DHT22;275;48.492;9.214;2023-08-06T13:41:10;17.60;45.50
578;DHT22;275;48.492;9.214;2023-08-06T13:43:39;17.80;44.10
578;DHT22;275;48.492;9.214;2023-08-06T13:46:05;17.50;44.90
578;DHT22;275;48.492;9.214;2023-08-06T13:48:32;17.30;45.60
578;DHT22;275;48.492;9.214;2023-08-06T13:51:00;17.10;46.10
578;DHT22;275;48.492;9.214;2023-08-06T13:53:27;18.10;44.40
578;DHT22;275;48.492;9.214;2023-08-06T13:55:55;18.40;41.70
578;DHT22;275;48.492;9.214;2023-08-06T13:58:22;17.20;45.70
578;DHT22;275;48.492;9.214;2023-08-06T14:00:51;16.90;47.90
578;DHT22;275;48.492;9.214;2023-08-06T14:03:18;17.00;48.50
578;DHT22;275;48.492;9.214;2023-08-06T14:05:45;16.60;50.70
578;DHT22;275;48.492;9.214;2023-08-06T14:08:13;16.30;52.20
578;DHT22;275;48.492;9.214;2023-08-06T14:10:40;16.80;52.20
578;DHT22;275;48.492;9.214;2023-08-06T14:13:07;18.00;48.20
578;DHT22;275;48.492;9.214;2023-08-06T14:15:34;18.30;45.60
578;DHT22;275;48.492;9.214;2023-08-06T14:18:01;17.80;46.00
578;DHT22;275;48.492;9.214;2023-08-06T14:20:27;18.50;44.70
578;DHT22;275;48.492;9.214;2023-08-06T14:22:54;18.40;43.70
578;DHT22;275;48.492;9.214;2023-08-06T14:25:23;18.20;44.20
578;DHT22;275;48.492;9.214;2023-08-06T14:27:49;18.10;44.50
578;DHT22;275;48.492;9.214;2023-08-06T14:30:16;18.20;43.10
578;DHT22;275;48.492;9.214;2023-08-06T14:32:44;17.90;42.90
578;DHT22;275;48.492;9.214;2023-08-06T14:35:10;17.10;46.10
578;DHT22;275;48.492;9.214;2023-08-06T14:37:37;16.90;48.10
578;DHT22;275;48.492;9.214;2023-08-06T14:40:05;16.60;51.20
578;DHT22;275;48.492;9.214;2023-08-06T14:42:34;16.80;50.00
578;DHT22;275;48.492;9.214;2023-08-06T14:45:01;17.40;46.50
578;DHT22;275;48.492;9.214;2023-08-06T14:47:29;17.70;44.90
578;DHT22;275;48.492;9.214;2023-08-06T14:49:56;17.80;43.90
578;DHT22;275;48.492;9.214;2023-08-06T14:52:23;17.50;44.60
578;DHT22;275;48.492;9.214;2023-08-06T14:54:49;17.90;43.30
578;DHT22;275;48.492;9.214;2023-08-06T14:57:17;17.50;42.50
578;DHT22;275;48.492;9.214;2023-08-06T14:59:46;17.20;42.90
578;DHT22;275;48.492;9.214;2023-08-06T15:02:13;17.10;43.30
578;DHT22;275;48.492;9.214;2023-08-06T15:04:40;16.90;43.70
578;DHT22;275;48.492;9.214;2023-08-06T15:07:07;16.90;43.50
578;DHT22;275;48.492;9.214;2023-08-06T15:09:35;17.50;43.30
578;DHT22;275;48.492;9.214;2023-08-06T15:12:02;18.00;42.60
578;DHT22;275;48.492;9.214;2023-08-06T15:14:29;17.90;44.00
578;DHT22;275;48.492;9.214;2023-08-06T15:16:57;18.10;42.90
578;DHT22;275;48.492;9.214;2023-08-06T15:19:24;17.40;42.30
578;DHT22;275;48.492;9.214;2023-08-06T15:21:51;17.00;45.00
578;DHT22;275;48.492;9.214;2023-08-06T15:24:18;17.20;44.00
578;DHT22;275;48.492;9.214;2023-08-06T15:26:45;17.50;42.10
578;DHT22;275;48.492;9.214;2023-08-06T15:29:12;16.90;43.20
578;DHT22;275;48.492;9.214;2023-08-06T15:31:39;16.70;42.90
578;DHT22;275;48.492;9.214;2023-08-06T15:34:07;16.90;41.80
578;DHT22;275;48.492;9.214;2023-08-06T15:36:34;17.70;39.40
578;DHT22;275;48.492;9.214;2023-08-06T15:39:01;17.90;37.60
578;DHT22;275;48.492;9.214;2023-08-06T15:41:29;17.80;37.30
578;DHT22;275;48.492;9.214;2023-08-06T15:43:56;17.70;38.40
578;DHT22;275;48.492;9.214;2023-08-06T15:46:23;17.70;39.00
578;DHT22;275;48.492;9.214;2023-08-06T15:48:49;17.60;38.80
578;DHT22;275;48.492;9.214;2023-08-06T15:51:18;17.80;38.80
578;DHT22;275;48.492;9.214;2023-08-06T15:53:44;18.40;36.90
578;DHT22;275;48.492;9.214;2023-08-06T15:56:11;18.00;37.50
578;DHT22;275;48.492;9.214;2023-08-06T15:58:38;17.80;37.20
578;DHT22;275;48.492;9.214;2023-08-06T16:01:05;18.00;36.90
578;DHT22;275;48.492;9.214;2023-08-06T16:03:32;18.30;36.10
578;DHT22;275;48.492;9.214;2023-08-06T16:05:58;18.20;36.60
578;DHT22;275;48.492;9.214;2023-08-06T16:08:27;17.60;36.70
578;DHT22;275;48.492;9.214;2023-08-06T16:10:54;17.60;37.50
578;DHT22;275;48.492;9.214;2023-08-06T16:13:21;17.40;37.20
578;DHT22;275;48.492;9.214;2023-08-06T16:15:48;17.40;37.80
578;DHT22;275;48.492;9.214;2023-08-06T16:18:14;17.20;38.00
578;DHT22;275;48.492;9.214;2023-08-06T16:20:42;17.00;39.20
578;DHT22;275;48.492;9.214;2023-08-06T16:23:09;17.00;38.80
578;DHT22;275;48.492;9.214;2023-08-06T16:25:38;17.10;38.70
578;DHT22;275;48.492;9.214;2023-08-06T16:28:06;17.10;38.80
578;DHT22;275;48.492;9.214;2023-08-06T16:30:33;16.60;40.40
578;DHT22;275;48.492;9.214;2023-08-06T16:33:00;16.50;40.70
578;DHT22;275;48.492;9.214;2023-08-06T16:35:27;16.70;40.90
578;DHT22;275;48.492;9.214;2023-08-06T16:37:54;16.80;41.20